sensor_id;sensor_type;location;lat;lon;timestamp;pressure;altitude;pressure_sealevel;temperature;humidity
37904;BME280;23738;50.422;18.758;2023-02-12T00:01:14;99747.17;;;3.73;90.38
37904;BME280;23738;50.422;18.758;2023-02-12T00:03:42;99745.55;;;3.71;90.39
37904;BME280;23738;50.422;18.758;2023-02-12T00:06:10;99751.73;;;3.70;90.36
37904;BME280;23738;50.422;18.758;2023-02-12T00:08:38;99758.13;;;3.71;90.41
37904;BME280;23738;50.422;18.758;2023-02-12T00:11:11;99754.61;;;3.74;90.45
37904;BME280;23738;50.422;18.758;2023-02-12T00:13:38;99753.64;;;3.76;90.65
37904;BME280;23738;50.422;18.758;2023-02-12T00:16:07;99754.95;;;3.78;90.68
37904;BME280;23738;50.422;18.758;2023-02-12T00:18:34;99759.44;;;3.78;90.70
37904;BME280;23738;50.422;18.758;2023-02-12T00:21:03;99761.82;;;3.77;90.78
37904;BME280;23738;50.422;18.758;2023-02-12T00:23:31;99758.34;;;3.72;90.67
37904;BME280;23738;50.422;18.758;2023-02-12T00:25:58;99771.13;;;3.76;90.65
37904;BME280;23738;50.422;18.758;2023-02-12T00:28:26;99770.84;;;3.78;90.66
37904;BME280;23738;50.422;18.758;2023-02-12T00:30:53;99770.94;;;3.80;90.87
37904;BME280;23738;50.422;18.758;2023-02-12T00:33:20;99776.76;;;3.82;90.93
37904;BME280;23738;50.422;18.758;2023-02-12T00:35:55;99772.29;;;3.81;91.06
37904;BME280;23738;50.422;18.758;2023-02-12T00:38:22;99766.21;;;3.79;90.91
37904;BME280;23738;50.422;18.758;2023-02-12T00:40:50;99771.45;;;3.78;91.02
37904;BME280;23738;50.422;18.758;2023-02-12T00:43:17;99771.09;;;3.76;91.11
37904;BME280;23738;50.422;18.758;2023-02-12T00:45:45;99779.42;;;3.81;91.02
37904;BME280;23738;50.422;18.758;2023-02-12T00:48:13;99774.83;;;3.84;91.06
37904;BME280;23738;50.422;18.758;2023-02-12T00:50:40;99773.13;;;3.85;91.10
37904;BME280;23738;50.422;18.758;2023-02-12T00:53:10;99774.33;;;3.86;91.23
37904;BME280;23738;50.422;18.758;2023-02-12T00:55:37;99783.51;;;3.84;91.22
37904;BME280;23738;50.422;18.758;2023-02-12T00:58:04;99781.33;;;3.83;91.28
37904;BME280;23738;50.422;18.758;2023-02-12T01:00:32;99785.08;;;3.84;91.21
37904;BME280;23738;50.422;18.758;2023-02-12T01:02:59;99788.91;;;3.87;91.29
37904;BME280;23738;50.422;18.758;2023-02-12T01:05:26;99789.23;;;3.89;91.48
37904;BME280;23738;50.422;18.758;2023-02-12T01:07:54;99788.65;;;3.90;91.37
37904;BME280;23738;50.422;18.758;2023-02-12T01:10:21;99788.67;;;3.90;91.42
37904;BME280;23738;50.422;18.758;2023-02-12T01:12:49;99788.05;;;3.89;91.52
37904;BME280;23738;50.422;18.758;2023-02-12T01:15:17;99792.05;;;3.89;91.60
37904;BME280;23738;50.422;18.758;2023-02-12T01:17:44;99788.64;;;3.90;91.70
37904;BME280;23738;50.422;18.758;2023-02-12T01:20:15;99788.35;;;3.92;91.54
37904;BME280;23738;50.422;18.758;2023-02-12T01:22:43;99796.83;;;3.92;91.66
37904;BME280;23738;50.422;18.758;2023-02-12T01:25:10;99796.94;;;3.93;91.81
37904;BME280;23738;50.422;18.758;2023-02-12T01:27:38;99798.88;;;3.92;91.74
37904;BME280;23738;50.422;18.758;2023-02-12T01:30:09;99801.52;;;3.90;91.86
37904;BME280;23738;50.422;18.758;2023-02-12T01:32:37;99807.42;;;3.89;91.96
37904;BME280;23738;50.422;18.758;2023-02-12T01:35:06;99810.61;;;3.88;91.96
37904;BME280;23738;50.422;18.758;2023-02-12T01:37:35;99814.91;;;3.88;91.86
37904;BME280;23738;50.422;18.758;2023-02-12T01:40:03;99812.70;;;3.90;91.89
37904;BME280;23738;50.422;18.758;2023-02-12T01:42:31;99823.02;;;3.89;91.80
37904;BME280;23738;50.422;18.758;2023-02-12T01:45:45;99818.84;;;3.90;91.84
37904;BME280;23738;50.422;18.758;2023-02-12T01:48:13;99829.65;;;3.87;91.85
37904;BME280;23738;50.422;18.758;2023-02-12T01:50:42;99831.02;;;3.87;92.27
37904;BME280;23738;50.422;18.758;2023-02-12T01:53:10;99824.61;;;3.89;92.32
37904;BME280;23738;50.422;18.758;2023-02-12T01:55:39;99826.34;;;3.91;92.19
37904;BME280;23738;50.422;18.758;2023-02-12T01:58:08;99838.52;;;3.94;92.27
37904;BME280;23738;50.422;18.758;2023-02-12T02:00:36;99837.89;;;3.95;92.12
37904;BME280;23738;50.422;18.758;2023-02-12T02:03:04;99838.27;;;3.95;92.29
37904;BME280;23738;50.422;18.758;2023-02-12T02:05:36;99845.64;;;3.94;92.27
37904;BME280;23738;50.422;18.758;2023-02-12T02:08:05;99839.02;;;3.94;92.35
37904;BME280;23738;50.422;18.758;2023-02-12T02:10:33;99842.56;;;3.95;92.40
37904;BME280;23738;50.422;18.758;2023-02-12T02:13:00;99840.98;;;3.96;92.41
37904;BME280;23738;50.422;18.758;2023-02-12T02:15:48;99842.45;;;3.97;92.45
37904;BME280;23738;50.422;18.758;2023-02-12T02:18:21;99841.92;;;3.97;92.52
37904;BME280;23738;50.422;18.758;2023-02-12T02:21:16;99845.18;;;3.95;92.71
37904;BME280;23738;50.422;18.758;2023-02-12T02:24:12;99852.92;;;3.94;92.44
37904;BME280;23738;50.422;18.758;2023-02-12T02:26:58;99855.71;;;3.97;92.55
37904;BME280;23738;50.422;18.758;2023-02-12T02:29:42;99851.63;;;4.00;92.49
37904;BME280;23738;50.422;18.758;2023-02-12T02:32:17;99852.92;;;4.03;92.68
37904;BME280;23738;50.422;18.758;2023-02-12T02:34:50;99853.48;;;4.03;92.50
37904;BME280;23738;50.422;18.758;2023-02-12T02:37:25;99857.07;;;3.99;92.44
37904;BME280;23738;50.422;18.758;2023-02-12T02:39:56;99869.38;;;3.96;92.64
37904;BME280;23738;50.422;18.758;2023-02-12T02:42:31;99875.11;;;3.94;92.43
37904;BME280;23738;50.422;18.758;2023-02-12T02:45:03;99878.92;;;3.94;92.51
37904;BME280;23738;50.422;18.758;2023-02-12T02:47:34;99881.02;;;3.96;92.57
37904;BME280;23738;50.422;18.758;2023-02-12T02:50:08;99883.30;;;3.98;92.54
37904;BME280;23738;50.422;18.758;2023-02-12T02:52:40;99884.53;;;4.00;92.50
37904;BME280;23738;50.422;18.758;2023-02-12T02:55:11;99880.86;;;3.98;92.43
37904;BME280;23738;50.422;18.758;2023-02-12T02:57:41;99886.02;;;3.97;92.55
37904;BME280;23738;50.422;18.758;2023-02-12T03:00:16;99894.34;;;3.97;92.62
37904;BME280;23738;50.422;18.758;2023-02-12T03:02:47;99899.59;;;3.97;92.33
37904;BME280;23738;50.422;18.758;2023-02-12T03:05:18;99909.48;;;3.98;92.43
37904;BME280;23738;50.422;18.758;2023-02-12T03:07:51;99905.70;;;3.97;92.58
37904;BME280;23738;50.422;18.758;2023-02-12T03:10:24;99907.60;;;3.95;92.34
37904;BME280;23738;50.422;18.758;2023-02-12T03:12:57;99912.63;;;3.91;92.30
37904;BME280;23738;50.422;18.758;2023-02-12T03:15:32;99918.25;;;3.89;92.50
37904;BME280;23738;50.422;18.758;2023-02-12T03:18:04;99916.37;;;3.88;92.46
37904;BME280;23738;50.422;18.758;2023-02-12T03:20:36;99917.25;;;3.88;92.46
37904;BME280;23738;50.422;18.758;2023-02-12T03:23:11;99920.48;;;3.87;92.47
37904;BME280;23738;50.422;18.758;2023-02-12T03:25:45;99926.64;;;3.86;92.38
37904;BME280;23738;50.422;18.758;2023-02-12T03:28:17;99941.63;;;3.86;92.50
37904;BME280;23738;50.422;18.758;2023-02-12T03:30:50;99944.09;;;3.88;92.56
37904;BME280;23738;50.422;18.758;2023-02-12T03:33:26;99948.99;;;3.85;92.47
37904;BME280;23738;50.422;18.758;2023-02-12T03:35:58;99952.17;;;3.84;92.57
37904;BME280;23738;50.422;18.758;2023-02-12T03:38:34;99960.58;;;3.87;92.62
37904;BME280;23738;50.422;18.758;2023-02-12T03:41:08;99972.77;;;3.84;92.51
37904;BME280;23738;50.422;18.758;2023-02-12T03:43:47;99981.87;;;3.84;92.59
37904;BME280;23738;50.422;18.758;2023-02-12T03:46:21;99981.70;;;3.82;92.55
37904;BME280;23738;50.422;18.758;2023-02-12T03:48:56;99983.73;;;3.82;92.76
37904;BME280;23738;50.422;18.758;2023-02-12T03:51:29;99988.49;;;3.82;92.58
37904;BME280;23738;50.422;18.758;2023-02-12T03:54:00;99992.13;;;3.84;92.77
37904;BME280;23738;50.422;18.758;2023-02-12T03:56:33;99990.96;;;3.85;92.58
37904;BME280;23738;50.422;18.758;2023-02-12T03:59:03;99989.58;;;3.83;92.65
37904;BME280;23738;50.422;18.758;2023-02-12T04:01:32;99995.10;;;3.79;92.69
37904;BME280;23738;50.422;18.758;2023-02-12T04:04:03;99995.80;;;3.79;92.95
37904;BME280;23738;50.422;18.758;2023-02-12T04:06:32;99997.52;;;3.82;92.94
37904;BME280;23738;50.422;18.758;2023-02-12T04:09:03;100001.40;;;3.84;92.92
37904;BME280;23738;50.422;18.758;2023-02-12T04:11:35;100009.30;;;3.83;92.76
37904;BME280;23738;50.422;18.758;2023-02-12T04:14:15;100013.56;;;3.84;92.72
37904;BME280;23738;50.422;18.758;2023-02-12T04:16:48;100018.16;;;3.83;92.80
37904;BME280;23738;50.422;18.758;2023-02-12T04:19:23;100025.95;;;3.84;92.82
37904;BME280;23738;50.422;18.758;2023-02-12T04:22:05;100025.70;;;3.80;92.63
37904;BME280;23738;50.422;18.758;2023-02-12T04:24:43;100025.67;;;3.76;92.83
37904;BME280;23738;50.422;18.758;2023-02-12T04:27:19;100033.96;;;3.77;92.80
37904;BME280;23738;50.422;18.758;2023-02-12T04:29:51;100033.23;;;3.75;92.63
37904;BME280;23738;50.422;18.758;2023-02-12T04:32:24;100030.42;;;3.74;92.50
37904;BME280;23738;50.422;18.758;2023-02-12T04:34:58;100035.08;;;3.74;92.60
37904;BME280;23738;50.422;18.758;2023-02-12T04:37:33;100041.84;;;3.75;92.69
37904;BME280;23738;50.422;18.758;2023-02-12T04:40:06;100046.27;;;3.72;92.52
37904;BME280;23738;50.422;18.758;2023-02-12T04:42:42;100051.90;;;3.68;92.70
37904;BME280;23738;50.422;18.758;2023-02-12T04:45:10;100048.43;;;3.67;92.67
37904;BME280;23738;50.422;18.758;2023-02-12T04:47:38;100052.61;;;3.64;92.75
37904;BME280;23738;50.422;18.758;2023-02-12T04:50:07;100053.45;;;3.67;92.82
37904;BME280;23738;50.422;18.758;2023-02-12T04:52:35;100056.67;;;3.67;92.63
37904;BME280;23738;50.422;18.758;2023-02-12T04:55:06;100065.28;;;3.67;92.79
37904;BME280;23738;50.422;18.758;2023-02-12T04:57:33;100067.41;;;3.64;92.48
37904;BME280;23738;50.422;18.758;2023-02-12T05:00:00;100068.23;;;3.63;92.64
37904;BME280;23738;50.422;18.758;2023-02-12T05:02:27;100078.98;;;3.61;92.73
37904;BME280;23738;50.422;18.758;2023-02-12T05:04:55;100079.13;;;3.61;92.86
37904;BME280;23738;50.422;18.758;2023-02-12T05:07:22;100081.30;;;3.67;92.82
37904;BME280;23738;50.422;18.758;2023-02-12T05:09:49;100092.40;;;3.70;92.81
37904;BME280;23738;50.422;18.758;2023-02-12T05:12:16;100097.52;;;3.69;92.70
37904;BME280;23738;50.422;18.758;2023-02-12T05:14:43;100100.72;;;3.66;92.71
37904;BME280;23738;50.422;18.758;2023-02-12T05:17:10;100101.45;;;3.63;92.74
37904;BME280;23738;50.422;18.758;2023-02-12T05:19:40;100101.27;;;3.61;92.63
37904;BME280;23738;50.422;18.758;2023-02-12T05:22:08;100100.84;;;3.58;92.46
37904;BME280;23738;50.422;18.758;2023-02-12T05:24:35;100100.91;;;3.57;92.62
37904;BME280;23738;50.422;18.758;2023-02-12T05:27:03;100105.30;;;3.63;92.84
37904;BME280;23738;50.422;18.758;2023-02-12T05:29:30;100112.58;;;3.64;92.71
37904;BME280;23738;50.422;18.758;2023-02-12T05:31:57;100112.63;;;3.56;92.41
37904;BME280;23738;50.422;18.758;2023-02-12T05:34:24;100111.92;;;3.50;92.43
37904;BME280;23738;50.422;18.758;2023-02-12T05:36:52;100114.80;;;3.44;92.45
37904;BME280;23738;50.422;18.758;2023-02-12T05:39:19;100122.82;;;3.41;92.38
37904;BME280;23738;50.422;18.758;2023-02-12T05:41:46;100126.92;;;3.40;92.52
37904;BME280;23738;50.422;18.758;2023-02-12T05:44:14;100128.43;;;3.38;92.30
37904;BME280;23738;50.422;18.758;2023-02-12T05:46:41;100127.30;;;3.37;92.43
37904;BME280;23738;50.422;18.758;2023-02-12T05:49:09;100127.69;;;3.37;92.64
37904;BME280;23738;50.422;18.758;2023-02-12T05:51:37;100135.35;;;3.37;92.81
37904;BME280;23738;50.422;18.758;2023-02-12T05:54:05;100141.88;;;3.35;92.87
37904;BME280;23738;50.422;18.758;2023-02-12T05:56:34;100146.97;;;3.37;92.77
37904;BME280;23738;50.422;18.758;2023-02-12T05:59:03;100151.03;;;3.37;92.62
37904;BME280;23738;50.422;18.758;2023-02-12T06:01:33;100152.93;;;3.37;92.59
37904;BME280;23738;50.422;18.758;2023-02-12T06:04:03;100155.03;;;3.39;92.99
37904;BME280;23738;50.422;18.758;2023-02-12T06:06:31;100157.48;;;3.46;93.29
37904;BME280;23738;50.422;18.758;2023-02-12T06:08:59;100165.05;;;3.48;93.21
37904;BME280;23738;50.422;18.758;2023-02-12T06:11:27;100177.29;;;3.47;92.94
37904;BME280;23738;50.422;18.758;2023-02-12T06:13:54;100182.64;;;3.50;93.30
37904;BME280;23738;50.422;18.758;2023-02-12T06:16:23;100188.91;;;3.57;93.32
37904;BME280;23738;50.422;18.758;2023-02-12T06:18:51;100194.55;;;3.60;93.16
37904;BME280;23738;50.422;18.758;2023-02-12T06:21:19;100191.09;;;3.60;93.15
37904;BME280;23738;50.422;18.758;2023-02-12T06:23:47;100198.84;;;3.59;93.03
37904;BME280;23738;50.422;18.758;2023-02-12T06:26:15;100207.44;;;3.56;92.97
37904;BME280;23738;50.422;18.758;2023-02-12T06:28:43;100217.30;;;3.54;92.80
37904;BME280;23738;50.422;18.758;2023-02-12T06:31:19;100224.29;;;3.54;92.89
37904;BME280;23738;50.422;18.758;2023-02-12T06:33:45;100230.39;;;3.56;92.96
37904;BME280;23738;50.422;18.758;2023-02-12T06:36:13;100231.89;;;3.55;92.74
37904;BME280;23738;50.422;18.758;2023-02-12T06:38:41;100236.59;;;3.53;92.92
37904;BME280;23738;50.422;18.758;2023-02-12T06:41:09;100238.07;;;3.47;92.46
37904;BME280;23738;50.422;18.758;2023-02-12T06:43:36;100241.80;;;3.41;92.36
37904;BME280;23738;50.422;18.758;2023-02-12T06:46:04;100245.06;;;3.42;92.48
37904;BME280;23738;50.422;18.758;2023-02-12T06:48:32;100241.27;;;3.41;92.74
37904;BME280;23738;50.422;18.758;2023-02-12T06:51:05;100247.05;;;3.48;92.65
37904;BME280;23738;50.422;18.758;2023-02-12T06:53:33;100249.08;;;3.49;92.42
37904;BME280;23738;50.422;18.758;2023-02-12T06:56:01;100247.98;;;3.47;92.26
37904;BME280;23738;50.422;18.758;2023-02-12T06:58:29;100250.50;;;3.48;92.39
37904;BME280;23738;50.422;18.758;2023-02-12T07:00:58;100256.14;;;3.52;92.44
37904;BME280;23738;50.422;18.758;2023-02-12T07:03:34;100252.17;;;3.52;92.22
37904;BME280;23738;50.422;18.758;2023-02-12T07:06:04;100257.44;;;3.60;92.31
37904;BME280;23738;50.422;18.758;2023-02-12T07:08:32;100258.52;;;3.67;92.42
37904;BME280;23738;50.422;18.758;2023-02-12T07:10:59;100258.91;;;3.73;92.49
37904;BME280;23738;50.422;18.758;2023-02-12T07:13:27;100262.82;;;3.79;92.65
37904;BME280;23738;50.422;18.758;2023-02-12T07:15:54;100263.05;;;3.85;92.53
37904;BME280;23738;50.422;18.758;2023-02-12T07:18:21;100259.39;;;3.93;92.38
37904;BME280;23738;50.422;18.758;2023-02-12T07:20:48;100263.42;;;4.01;92.51
37904;BME280;23738;50.422;18.758;2023-02-12T07:23:15;100259.27;;;4.03;92.16
37904;BME280;23738;50.422;18.758;2023-02-12T07:25:42;100264.34;;;4.03;91.96
37904;BME280;23738;50.422;18.758;2023-02-12T07:28:09;100269.61;;;4.00;91.84
37904;BME280;23738;50.422;18.758;2023-02-12T07:30:37;100271.70;;;3.98;91.76
37904;BME280;23738;50.422;18.758;2023-02-12T07:33:05;100278.38;;;4.00;91.77
37904;BME280;23738;50.422;18.758;2023-02-12T07:35:32;100281.89;;;3.99;91.80
37904;BME280;23738;50.422;18.758;2023-02-12T07:37:59;100286.41;;;3.97;91.68
37904;BME280;23738;50.422;18.758;2023-02-12T07:40:26;100290.02;;;3.95;91.46
37904;BME280;23738;50.422;18.758;2023-02-12T07:42:55;100297.15;;;3.86;91.36
37904;BME280;23738;50.422;18.758;2023-02-12T07:45:22;100302.09;;;3.78;91.31
37904;BME280;23738;50.422;18.758;2023-02-12T07:47:50;100303.52;;;3.80;91.24
37904;BME280;23738;50.422;18.758;2023-02-12T07:50:18;100305.58;;;3.86;91.39
37904;BME280;23738;50.422;18.758;2023-02-12T07:52:47;100304.95;;;3.94;91.41
37904;BME280;23738;50.422;18.758;2023-02-12T07:55:15;100301.02;;;4.00;91.10
37904;BME280;23738;50.422;18.758;2023-02-12T07:57:43;100301.05;;;4.06;91.10
37904;BME280;23738;50.422;18.758;2023-02-12T08:00:13;100304.14;;;4.09;91.01
37904;BME280;23738;50.422;18.758;2023-02-12T08:02:41;100307.36;;;4.10;91.06
37904;BME280;23738;50.422;18.758;2023-02-12T08:05:08;100312.17;;;4.16;90.97
37904;BME280;23738;50.422;18.758;2023-02-12T08:07:36;100316.41;;;4.24;91.29
37904;BME280;23738;50.422;18.758;2023-02-12T08:10:06;100320.08;;;4.34;90.89
37904;BME280;23738;50.422;18.758;2023-02-12T08:12:35;100318.73;;;4.39;91.03
37904;BME280;23738;50.422;18.758;2023-02-12T08:15:03;100327.86;;;4.54;91.24
37904;BME280;23738;50.422;18.758;2023-02-12T08:17:30;100330.26;;;4.60;90.69
37904;BME280;23738;50.422;18.758;2023-02-12T08:19:57;100334.65;;;4.59;90.50
37904;BME280;23738;50.422;18.758;2023-02-12T08:22:25;100338.15;;;4.59;90.63
37904;BME280;23738;50.422;18.758;2023-02-12T08:24:52;100339.88;;;4.62;90.84
37904;BME280;23738;50.422;18.758;2023-02-12T08:27:19;100341.02;;;4.60;90.41
37904;BME280;23738;50.422;18.758;2023-02-12T08:29:46;100337.58;;;4.53;89.94
37904;BME280;23738;50.422;18.758;2023-02-12T08:32:13;100342.63;;;4.49;90.03
37904;BME280;23738;50.422;18.758;2023-02-12T08:34:42;100353.10;;;4.46;90.08
37904;BME280;23738;50.422;18.758;2023-02-12T08:37:09;100355.56;;;4.42;89.99
37904;BME280;23738;50.422;18.758;2023-02-12T08:39:36;100361.37;;;4.34;90.02
37904;BME280;23738;50.422;18.758;2023-02-12T08:42:04;100363.12;;;4.29;89.68
37904;BME280;23738;50.422;18.758;2023-02-12T08:44:32;100359.81;;;4.32;90.10
37904;BME280;23738;50.422;18.758;2023-02-12T08:46:59;100361.81;;;4.37;89.88
37904;BME280;23738;50.422;18.758;2023-02-12T08:49:28;100361.20;;;4.39;89.54
37904;BME280;23738;50.422;18.758;2023-02-12T08:51:56;100362.52;;;4.37;89.66
37904;BME280;23738;50.422;18.758;2023-02-12T08:54:25;100366.65;;;4.45;89.46
37904;BME280;23738;50.422;18.758;2023-02-12T08:56:55;100368.60;;;4.49;89.43
37904;BME280;23738;50.422;18.758;2023-02-12T08:59:23;100369.42;;;4.52;89.31
37904;BME280;23738;50.422;18.758;2023-02-12T09:01:51;100373.45;;;4.54;89.48
37904;BME280;23738;50.422;18.758;2023-02-12T09:04:23;100373.55;;;4.57;89.03
37904;BME280;23738;50.422;18.758;2023-02-12T09:06:52;100376.35;;;4.50;88.83
37904;BME280;23738;50.422;18.758;2023-02-12T09:09:19;100381.05;;;4.48;89.16
37904;BME280;23738;50.422;18.758;2023-02-12T09:11:47;100382.61;;;4.44;88.81
37904;BME280;23738;50.422;18.758;2023-02-12T09:14:17;100386.99;;;4.37;88.50
37904;BME280;23738;50.422;18.758;2023-02-12T09:16:49;100386.96;;;4.30;88.51
37904;BME280;23738;50.422;18.758;2023-02-12T09:19:18;100386.04;;;4.26;88.42
37904;BME280;23738;50.422;18.758;2023-02-12T09:21:50;100393.85;;;4.31;88.24
37904;BME280;23738;50.422;18.758;2023-02-12T09:24:17;100394.76;;;4.40;88.19
37904;BME280;23738;50.422;18.758;2023-02-12T09:26:44;100387.08;;;4.47;88.51
37904;BME280;23738;50.422;18.758;2023-02-12T09:29:11;100385.52;;;4.56;88.54
37904;BME280;23738;50.422;18.758;2023-02-12T09:31:39;100392.33;;;4.58;88.32
37904;BME280;23738;50.422;18.758;2023-02-12T09:34:06;100400.60;;;4.55;87.88
37904;BME280;23738;50.422;18.758;2023-02-12T09:36:34;100405.63;;;4.48;87.87
37904;BME280;23738;50.422;18.758;2023-02-12T09:39:02;100410.02;;;4.44;87.93
37904;BME280;23738;50.422;18.758;2023-02-12T09:41:48;100416.31;;;4.41;88.09
37904;BME280;23738;50.422;18.758;2023-02-12T09:44:24;100421.33;;;4.39;88.21
37904;BME280;23738;50.422;18.758;2023-02-12T09:46:58;100423.85;;;4.36;88.00
37904;BME280;23738;50.422;18.758;2023-02-12T09:49:42;100423.73;;;4.33;87.64
37904;BME280;23738;50.422;18.758;2023-02-12T09:52:15;100427.80;;;4.34;87.46
37904;BME280;23738;50.422;18.758;2023-02-12T09:54:43;100424.67;;;4.41;87.91
37904;BME280;23738;50.422;18.758;2023-02-12T09:57:18;100428.53;;;4.52;88.14
37904;BME280;23738;50.422;18.758;2023-02-12T09:59:51;100429.30;;;4.61;87.79
37904;BME280;23738;50.422;18.758;2023-02-12T10:02:21;100426.11;;;4.64;87.65
37904;BME280;23738;50.422;18.758;2023-02-12T10:04:52;100428.94;;;4.63;86.77
37904;BME280;23738;50.422;18.758;2023-02-12T10:07:28;100436.25;;;4.61;87.22
37904;BME280;23738;50.422;18.758;2023-02-12T10:10:17;100436.52;;;4.65;86.91
37904;BME280;23738;50.422;18.758;2023-02-12T10:12:50;100442.10;;;4.60;86.69
37904;BME280;23738;50.422;18.758;2023-02-12T10:15:29;100444.75;;;4.64;87.28
37904;BME280;23738;50.422;18.758;2023-02-12T10:18:07;100444.70;;;4.77;87.39
37904;BME280;23738;50.422;18.758;2023-02-12T10:20:49;100446.00;;;5.03;87.64
37904;BME280;23738;50.422;18.758;2023-02-12T10:23:29;100438.84;;;5.18;87.68
37904;BME280;23738;50.422;18.758;2023-02-12T10:26:05;100432.34;;;5.32;87.38
37904;BME280;23738;50.422;18.758;2023-02-12T10:28:37;100431.02;;;5.51;87.51
37904;BME280;23738;50.422;18.758;2023-02-12T10:31:08;100431.64;;;5.63;87.45
37904;BME280;23738;50.422;18.758;2023-02-12T10:33:41;100431.60;;;5.70;86.60
37904;BME280;23738;50.422;18.758;2023-02-12T10:36:20;100434.43;;;5.67;85.73
37904;BME280;23738;50.422;18.758;2023-02-12T10:38:56;100435.17;;;5.56;85.19
37904;BME280;23738;50.422;18.758;2023-02-12T10:41:27;100434.21;;;5.39;85.56
37904;BME280;23738;50.422;18.758;2023-02-12T10:43:56;100437.89;;;5.39;85.73
37904;BME280;23738;50.422;18.758;2023-02-12T10:46:23;100431.77;;;5.35;85.70
37904;BME280;23738;50.422;18.758;2023-02-12T10:48:52;100435.81;;;5.32;85.22
37904;BME280;23738;50.422;18.758;2023-02-12T10:51:53;100437.61;;;5.23;85.31
37904;BME280;23738;50.422;18.758;2023-02-12T10:54:33;100443.45;;;5.24;85.10
37904;BME280;23738;50.422;18.758;2023-02-12T10:57:06;100440.30;;;5.18;85.24
37904;BME280;23738;50.422;18.758;2023-02-12T10:59:34;100437.76;;;5.17;85.43
37904;BME280;23738;50.422;18.758;2023-02-12T11:02:02;100442.16;;;5.16;85.15
37904;BME280;23738;50.422;18.758;2023-02-12T11:04:32;100442.67;;;5.14;84.97
37904;BME280;23738;50.422;18.758;2023-02-12T11:07:00;100439.69;;;5.21;85.89
37904;BME280;23738;50.422;18.758;2023-02-12T11:09:33;100437.66;;;5.27;85.34
37904;BME280;23738;50.422;18.758;2023-02-12T11:12:02;100440.34;;;5.21;84.80
37904;BME280;23738;50.422;18.758;2023-02-12T11:14:30;100435.08;;;5.17;84.83
37904;BME280;23738;50.422;18.758;2023-02-12T11:16:59;100428.81;;;5.15;85.20
37904;BME280;23738;50.422;18.758;2023-02-12T11:19:28;100430.73;;;5.17;84.98
37904;BME280;23738;50.422;18.758;2023-02-12T11:22:06;100436.41;;;5.14;84.78
37904;BME280;23738;50.422;18.758;2023-02-12T11:24:37;100434.05;;;5.12;84.88
37904;BME280;23738;50.422;18.758;2023-02-12T11:27:22;100439.45;;;5.11;84.68
37904;BME280;23738;50.422;18.758;2023-02-12T11:30:12;100435.38;;;5.09;84.85
37904;BME280;23738;50.422;18.758;2023-02-12T11:32:40;100434.04;;;5.04;84.82
37904;BME280;23738;50.422;18.758;2023-02-12T11:35:13;100433.75;;;5.01;84.82
37904;BME280;23738;50.422;18.758;2023-02-12T11:37:42;100433.76;;;5.03;84.76
37904;BME280;23738;50.422;18.758;2023-02-12T11:40:16;100442.09;;;5.06;84.74
37904;BME280;23738;50.422;18.758;2023-02-12T11:42:48;100441.00;;;5.06;84.62
37904;BME280;23738;50.422;18.758;2023-02-12T11:45:19;100441.83;;;5.09;84.91
37904;BME280;23738;50.422;18.758;2023-02-12T11:47:47;100438.34;;;5.13;84.80
37904;BME280;23738;50.422;18.758;2023-02-12T11:50:23;100442.17;;;5.21;85.21
37904;BME280;23738;50.422;18.758;2023-02-12T11:52:54;100437.13;;;5.22;84.72
37904;BME280;23738;50.422;18.758;2023-02-12T11:55:25;100439.73;;;5.25;84.76
37904;BME280;23738;50.422;18.758;2023-02-12T11:58:00;100437.66;;;5.29;84.78
37904;BME280;23738;50.422;18.758;2023-02-12T12:00:31;100434.73;;;5.35;84.68
37904;BME280;23738;50.422;18.758;2023-02-12T12:03:03;100429.85;;;5.37;84.58
37904;BME280;23738;50.422;18.758;2023-02-12T12:05:36;100427.73;;;5.38;84.75
37904;BME280;23738;50.422;18.758;2023-02-12T12:08:13;100432.41;;;5.43;84.50
37904;BME280;23738;50.422;18.758;2023-02-12T12:10:47;100432.87;;;5.39;84.34
37904;BME280;23738;50.422;18.758;2023-02-12T12:13:20;100436.02;;;5.41;84.43
37904;BME280;23738;50.422;18.758;2023-02-12T12:15:53;100438.50;;;5.43;84.36
37904;BME280;23738;50.422;18.758;2023-02-12T12:18:45;100434.14;;;5.45;84.62
37904;BME280;23738;50.422;18.758;2023-02-12T12:21:36;100433.98;;;5.51;84.55
37904;BME280;23738;50.422;18.758;2023-02-12T12:24:12;100435.93;;;5.53;84.05
37904;BME280;23738;50.422;18.758;2023-02-12T12:26:48;100435.65;;;5.54;84.20
37904;BME280;23738;50.422;18.758;2023-02-12T12:29:21;100428.75;;;5.51;84.18
37904;BME280;23738;50.422;18.758;2023-02-12T12:31:56;100436.06;;;5.58;84.45
37904;BME280;23738;50.422;18.758;2023-02-12T12:34:27;100436.66;;;5.66;84.65
37904;BME280;23738;50.422;18.758;2023-02-12T12:37:20;100442.02;;;5.66;83.98
37904;BME280;23738;50.422;18.758;2023-02-12T12:40:10;100442.04;;;5.62;84.13
37904;BME280;23738;50.422;18.758;2023-02-12T12:45:37;100443.43;;;5.58;83.33
37904;BME280;23738;50.422;18.758;2023-02-12T12:48:16;100444.20;;;5.61;84.22
37904;BME280;23738;50.422;18.758;2023-02-12T12:51:04;100444.26;;;5.69;83.86
37904;BME280;23738;50.422;18.758;2023-02-12T12:53:45;100437.43;;;5.63;83.52
37904;BME280;23738;50.422;18.758;2023-02-12T12:59:46;100427.86;;;5.54;83.52
37904;BME280;23738;50.422;18.758;2023-02-12T13:08:41;100432.89;;;5.52;83.19
37904;BME280;23738;50.422;18.758;2023-02-12T13:11:22;100434.03;;;5.55;83.49
37904;BME280;23738;50.422;18.758;2023-02-12T13:14:06;100435.44;;;5.57;83.23
37904;BME280;23738;50.422;18.758;2023-02-12T13:16:43;100433.85;;;5.58;83.34
37904;BME280;23738;50.422;18.758;2023-02-12T13:19:20;100433.77;;;5.61;83.31
37904;BME280;23738;50.422;18.758;2023-02-12T13:21:54;100441.73;;;5.64;83.37
37904;BME280;23738;50.422;18.758;2023-02-12T13:24:32;100445.19;;;5.71;83.57
37904;BME280;23738;50.422;18.758;2023-02-12T13:27:04;100442.84;;;5.78;83.63